Tropical Cyclones
[Index]
Main Index Home Page Stock Weather Photos Extreme Storms Discussion Storm News and Storm Chasing Reports Tropical Cyclones / Hurricanes / Typhoons Weather Data and Links Wild Fires / Bushfires Weather Observation Techniques Weather Picture Catalogue Tornado Pictures and Reports Stock Video Footage and DVDs for sale
Season 1996-1997 Tropical Cyclone RHONDA Track Map
Season 1996-1997 Summaries: [BoM-AU] [JTWC-AU] [JTWC-SIO] [JTWC-SPAC] [JTWC-SH]
<<- Previous TC | BoM 1996-1997 Season | Next TC ->>

click for intensity scale information  Lat/long Grid: Show Hide

 Date Labels: Show Hide

Bureau of Meteorology Tropical Cyclone Data

Name: RHONDA
Number: 804 / 199697_13

10 May 1997 01:00 UTC to 17 May 1997 10:00 UTC

    date/time    lat    long    hPa   cat  kts
1997-05-10 01   11.0    84.5   1000         27          
1997-05-10 13   11.0    87.0    998         29          
1997-05-11 01   11.5    90.1    995    1    35          
1997-05-11 10   11.9    91.0    990    1    41          
1997-05-11 16   12.0    91.3    990    1    41          
1997-05-11 22   12.2    91.5    985    2    47          
1997-05-12 04   12.2    91.7    985    2    47          
1997-05-12 07   12.3    91.8    980    2    54          
1997-05-12 10   12.4    92.0    980    2    54          
1997-05-12 16   12.5    92.3    975    2    60          
1997-05-12 22   12.8    92.8    975    2    60          
1997-05-13 04   13.2    93.1    970    3    66          
1997-05-13 07   13.4    93.3    965    3    70          
1997-05-13 10   13.6    93.8    960    3    76          
1997-05-13 16   14.3    94.9    955    4    80          
1997-05-13 22   15.1    95.9    950    4    84          
1997-05-14 01   15.5    96.3    945    4    89          
1997-05-14 04   15.9    96.8    935    4    97          
1997-05-14 07   16.4    97.4    940    4    93          
1997-05-14 10   17.0    98.0    945    4    89          
1997-05-14 16   17.8    99.2    950    4    84          
1997-05-14 22   18.7   100.6    955    4    80          
1997-05-15 01   19.1   101.2    965    3    70          
1997-05-15 04   19.7   101.9    970    3    66          
1997-05-15 10   20.8   103.4    975    2    60          
1997-05-15 16   22.0   104.9    980    2    54          
1997-05-15 22   23.1   106.8    985    2    47          
1997-05-16 01   23.6   107.6    990    1    41          
1997-05-16 04   24.1   108.3    995    1    35          
1997-05-16 07   24.6   109.0    998         29          
1997-05-16 10   24.7   109.3   1000         27          
1997-05-16 13   24.8   109.6   1000         27          
1997-05-16 16   24.8   109.8   1000         27          
1997-05-16 19   24.8   110.1   1000         27          
1997-05-16 22   25.1   110.5   1000         27          
1997-05-17 01   25.6   110.8   1000         27          
1997-05-17 04   26.0   111.3   1000         27          
1997-05-17 10   27.3   112.2   1005         19          
Winds are 10-min average.

Tropical cyclone tracks developed by Michael Bath using data from the Bureau of Meteorology and Google Maps.


[Australian Severe Weather index] [Copyright Notice] [Email Contacts] [Search This Site] [Privacy Policy]
Document: tropical_cyclone_rhonda.htm Updated: 30 May 2013